sensor_id;sensor_type;location;lat;lon;timestamp;temperature;humidity
20208;DHT22;10263;48.716;8.760;2023-04-01T00:05:48;7.30;99.90
20208;DHT22;10263;48.716;8.760;2023-04-01T00:15:37;7.30;99.90
20208;DHT22;10263;48.716;8.760;2023-04-01T00:23:00;7.40;99.90
20208;DHT22;10263;48.716;8.760;2023-04-01T00:25:27;7.30;99.90
20208;DHT22;10263;48.716;8.760;2023-04-01T00:32:51;7.20;99.90
20208;DHT22;10263;48.716;8.760;2023-04-01T00:37:45;7.20;99.90
20208;DHT22;10263;48.716;8.760;2023-04-01T00:40:25;7.10;99.90
20208;DHT22;10263;48.716;8.760;2023-04-01T00:45:35;7.10;99.90
20208;DHT22;10263;48.716;8.760;2023-04-01T00:48:07;7.10;99.90
20208;DHT22;10263;48.716;8.760;2023-04-01T00:50:35;7.10;99.90
20208;DHT22;10263;48.716;8.760;2023-04-01T00:53:03;6.80;99.90
20208;DHT22;10263;48.716;8.760;2023-04-01T00:55:35;7.00;99.90
20208;DHT22;10263;48.716;8.760;2023-04-01T00:58:05;7.00;99.90
20208;DHT22;10263;48.716;8.760;2023-04-01T01:00:34;6.90;99.90
20208;DHT22;10263;48.716;8.760;2023-04-01T01:03:02;7.00;99.90
20208;DHT22;10263;48.716;8.760;2023-04-01T01:05:37;7.00;99.90
20208;DHT22;10263;48.716;8.760;2023-04-01T01:08:13;7.00;99.90
20208;DHT22;10263;48.716;8.760;2023-04-01T01:10:44;7.00;99.90
20208;DHT22;10263;48.716;8.760;2023-04-01T01:13:18;7.00;99.90
20208;DHT22;10263;48.716;8.760;2023-04-01T01:15:53;9.60;99.90
20208;DHT22;10263;48.716;8.760;2023-04-01T01:18:30;7.10;99.90
20208;DHT22;10263;48.716;8.760;2023-04-01T01:21:23;7.00;99.90
20208;DHT22;10263;48.716;8.760;2023-04-01T01:26:57;7.10;99.90
20208;DHT22;10263;48.716;8.760;2023-04-01T01:30:00;7.10;99.90
20208;DHT22;10263;48.716;8.760;2023-04-01T01:35:31;7.00;99.90
20208;DHT22;10263;48.716;8.760;2023-04-01T01:38:03;6.90;99.90
20208;DHT22;10263;48.716;8.760;2023-04-01T01:40:32;6.90;99.90
20208;DHT22;10263;48.716;8.760;2023-04-01T01:43:05;6.90;99.90
20208;DHT22;10263;48.716;8.760;2023-04-01T01:45:33;7.00;99.90
20208;DHT22;10263;48.716;8.760;2023-04-01T01:48:03;7.00;99.90
20208;DHT22;10263;48.716;8.760;2023-04-01T01:50:32;7.00;99.90
20208;DHT22;10263;48.716;8.760;2023-04-01T01:53:02;6.90;99.90
20208;DHT22;10263;48.716;8.760;2023-04-01T01:55:30;6.90;99.90
20208;DHT22;10263;48.716;8.760;2023-04-01T01:58:00;6.90;99.90
20208;DHT22;10263;48.716;8.760;2023-04-01T02:00:29;6.90;99.90
20208;DHT22;10263;48.716;8.760;2023-04-01T02:02:58;6.90;99.90
20208;DHT22;10263;48.716;8.760;2023-04-01T02:05:27;6.90;99.90
20208;DHT22;10263;48.716;8.760;2023-04-01T02:08:06;7.00;99.90
20208;DHT22;10263;48.716;8.760;2023-04-01T02:10:37;6.80;99.90
20208;DHT22;10263;48.716;8.760;2023-04-01T02:13:09;7.00;99.90
20208;DHT22;10263;48.716;8.760;2023-04-01T02:15:41;7.10;99.90
20208;DHT22;10263;48.716;8.760;2023-04-01T02:18:09;7.10;99.90
20208;DHT22;10263;48.716;8.760;2023-04-01T02:20:37;7.00;99.90
20208;DHT22;10263;48.716;8.760;2023-04-01T02:23:07;7.00;99.90
20208;DHT22;10263;48.716;8.760;2023-04-01T02:25:36;7.00;99.90
20208;DHT22;10263;48.716;8.760;2023-04-01T02:28:05;7.00;99.90
20208;DHT22;10263;48.716;8.760;2023-04-01T02:30:35;6.90;99.90
20208;DHT22;10263;48.716;8.760;2023-04-01T02:33:03;6.90;99.90
20208;DHT22;10263;48.716;8.760;2023-04-01T02:35:33;6.90;99.90
20208;DHT22;10263;48.716;8.760;2023-04-01T02:38:01;6.90;99.90
20208;DHT22;10263;48.716;8.760;2023-04-01T02:40:29;6.90;99.90
20208;DHT22;10263;48.716;8.760;2023-04-01T02:52:45;6.80;99.90
20208;DHT22;10263;48.716;8.760;2023-04-01T02:57:40;6.80;99.90
20208;DHT22;10263;48.716;8.760;2023-04-01T03:00:08;6.80;99.90
20208;DHT22;10263;48.716;8.760;2023-04-01T03:02:37;6.70;99.90
20208;DHT22;10263;48.716;8.760;2023-04-01T03:05:05;6.70;99.90
20208;DHT22;10263;48.716;8.760;2023-04-01T03:14:55;6.90;99.90
20208;DHT22;10263;48.716;8.760;2023-04-01T03:19:49;6.50;99.90
20208;DHT22;10263;48.716;8.760;2023-04-01T03:27:13;6.70;99.90
20208;DHT22;10263;48.716;8.760;2023-04-01T03:32:09;6.60;99.90
20208;DHT22;10263;48.716;8.760;2023-04-01T03:34:36;6.50;99.90
20208;DHT22;10263;48.716;8.760;2023-04-01T03:41:58;6.50;99.90
20208;DHT22;10263;48.716;8.760;2023-04-01T03:49:24;6.50;99.90
20208;DHT22;10263;48.716;8.760;2023-04-01T03:54:18;6.60;99.90
20208;DHT22;10263;48.716;8.760;2023-04-01T03:59:13;6.50;99.90
20208;DHT22;10263;48.716;8.760;2023-04-01T04:04:10;6.50;99.90
20208;DHT22;10263;48.716;8.760;2023-04-01T04:06:40;6.50;99.90
20208;DHT22;10263;48.716;8.760;2023-04-01T04:21:26;6.50;99.90
20208;DHT22;10263;48.716;8.760;2023-04-01T04:23:54;6.30;99.90
20208;DHT22;10263;48.716;8.760;2023-04-01T04:36:22;6.30;99.90
20208;DHT22;10263;48.716;8.760;2023-04-01T04:38:50;6.30;99.90
20208;DHT22;10263;48.716;8.760;2023-04-01T04:41:19;6.30;99.90
20208;DHT22;10263;48.716;8.760;2023-04-01T04:43:50;6.30;99.90
20208;DHT22;10263;48.716;8.760;2023-04-01T04:48:47;6.30;99.90
20208;DHT22;10263;48.716;8.760;2023-04-01T04:51:15;6.30;99.90
20208;DHT22;10263;48.716;8.760;2023-04-01T04:53:42;6.40;99.90
20208;DHT22;10263;48.716;8.760;2023-04-01T04:58:44;8.50;99.90
20208;DHT22;10263;48.716;8.760;2023-04-01T05:01:16;6.50;99.90
20208;DHT22;10263;48.716;8.760;2023-04-01T05:03:44;6.50;99.90
20208;DHT22;10263;48.716;8.760;2023-04-01T05:06:13;6.60;99.90
20208;DHT22;10263;48.716;8.760;2023-04-01T05:08:40;6.60;99.90
20208;DHT22;10263;48.716;8.760;2023-04-01T05:11:10;6.60;99.90
20208;DHT22;10263;48.716;8.760;2023-04-01T05:16:09;6.70;99.90
20208;DHT22;10263;48.716;8.760;2023-04-01T05:23:32;6.70;99.90
20208;DHT22;10263;48.716;8.760;2023-04-01T05:26:03;6.70;99.90
20208;DHT22;10263;48.716;8.760;2023-04-01T05:28:31;6.70;99.90
20208;DHT22;10263;48.716;8.760;2023-04-01T05:30:59;6.70;99.90
20208;DHT22;10263;48.716;8.760;2023-04-01T05:33:32;6.80;99.90
20208;DHT22;10263;48.716;8.760;2023-04-01T05:36:06;6.70;99.90
20208;DHT22;10263;48.716;8.760;2023-04-01T05:48:37;6.90;99.90
20208;DHT22;10263;48.716;8.760;2023-04-01T05:51:04;6.80;99.90
20208;DHT22;10263;48.716;8.760;2023-04-01T05:53:31;6.90;99.90
20208;DHT22;10263;48.716;8.760;2023-04-01T05:56:02;6.90;99.90
20208;DHT22;10263;48.716;8.760;2023-04-01T06:01:02;6.80;99.90
20208;DHT22;10263;48.716;8.760;2023-04-01T06:05:58;6.90;99.90
20208;DHT22;10263;48.716;8.760;2023-04-01T06:08:27;6.90;99.90
20208;DHT22;10263;48.716;8.760;2023-04-01T06:11:16;6.80;99.90
20208;DHT22;10263;48.716;8.760;2023-04-01T06:13:55;6.70;99.90
20208;DHT22;10263;48.716;8.760;2023-04-01T06:16:31;6.90;99.90
20208;DHT22;10263;48.716;8.760;2023-04-01T06:19:05;6.80;99.90
20208;DHT22;10263;48.716;8.760;2023-04-01T06:22:02;6.80;99.90
20208;DHT22;10263;48.716;8.760;2023-04-01T06:27:43;6.70;99.90
20208;DHT22;10263;48.716;8.760;2023-04-01T06:30:28;6.90;99.90
20208;DHT22;10263;48.716;8.760;2023-04-01T06:33:12;6.90;99.90
20208;DHT22;10263;48.716;8.760;2023-04-01T06:36:09;6.60;99.90
20208;DHT22;10263;48.716;8.760;2023-04-01T06:38:57;6.50;99.90
20208;DHT22;10263;48.716;8.760;2023-04-01T06:41:52;6.70;99.90
20208;DHT22;10263;48.716;8.760;2023-04-01T06:44:32;6.50;99.90
20208;DHT22;10263;48.716;8.760;2023-04-01T06:47:42;6.70;99.90
20208;DHT22;10263;48.716;8.760;2023-04-01T06:50:48;6.50;99.90
20208;DHT22;10263;48.716;8.760;2023-04-01T06:53:53;6.60;99.90
20208;DHT22;10263;48.716;8.760;2023-04-01T06:56:42;6.70;99.90
20208;DHT22;10263;48.716;8.760;2023-04-01T06:59:16;6.80;99.90
20208;DHT22;10263;48.716;8.760;2023-04-01T07:01:47;6.60;99.90
20208;DHT22;10263;48.716;8.760;2023-04-01T07:04:19;6.50;99.90
20208;DHT22;10263;48.716;8.760;2023-04-01T07:06:49;6.60;99.90
20208;DHT22;10263;48.716;8.760;2023-04-01T07:09:21;6.60;99.90
20208;DHT22;10263;48.716;8.760;2023-04-01T07:12:14;9.60;99.90
20208;DHT22;10263;48.716;8.760;2023-04-01T07:15:05;6.60;99.90
20208;DHT22;10263;48.716;8.760;2023-04-01T07:17:39;6.50;99.90
20208;DHT22;10263;48.716;8.760;2023-04-01T07:20:13;6.60;99.90
20208;DHT22;10263;48.716;8.760;2023-04-01T07:22:44;6.60;99.90
20208;DHT22;10263;48.716;8.760;2023-04-01T07:25:31;6.70;99.90
20208;DHT22;10263;48.716;8.760;2023-04-01T07:31:05;6.70;99.90
20208;DHT22;10263;48.716;8.760;2023-04-01T07:33:39;6.70;99.90
20208;DHT22;10263;48.716;8.760;2023-04-01T07:36:13;6.80;99.90
20208;DHT22;10263;48.716;8.760;2023-04-01T07:38:53;7.10;99.90
20208;DHT22;10263;48.716;8.760;2023-04-01T07:41:51;6.80;99.90
20208;DHT22;10263;48.716;8.760;2023-04-01T07:44:25;6.80;99.90
20208;DHT22;10263;48.716;8.760;2023-04-01T07:50:06;7.00;99.90
20208;DHT22;10263;48.716;8.760;2023-04-01T07:52:41;6.90;99.90
20208;DHT22;10263;48.716;8.760;2023-04-01T07:55:22;6.90;99.90
20208;DHT22;10263;48.716;8.760;2023-04-01T07:57:58;6.80;99.90
20208;DHT22;10263;48.716;8.760;2023-04-01T08:00:30;6.80;99.90
20208;DHT22;10263;48.716;8.760;2023-04-01T08:03:20;6.80;99.90
20208;DHT22;10263;48.716;8.760;2023-04-01T08:05:54;6.80;99.90
20208;DHT22;10263;48.716;8.760;2023-04-01T08:08:30;6.70;99.90
20208;DHT22;10263;48.716;8.760;2023-04-01T08:11:25;6.80;99.90
20208;DHT22;10263;48.716;8.760;2023-04-01T08:14:20;6.80;99.90
20208;DHT22;10263;48.716;8.760;2023-04-01T08:17:13;6.80;99.90
20208;DHT22;10263;48.716;8.760;2023-04-01T08:19:56;6.80;99.90
20208;DHT22;10263;48.716;8.760;2023-04-01T08:22:34;6.90;99.90
20208;DHT22;10263;48.716;8.760;2023-04-01T08:25:16;6.90;99.90
20208;DHT22;10263;48.716;8.760;2023-04-01T08:27:45;6.90;99.90
20208;DHT22;10263;48.716;8.760;2023-04-01T08:30:19;6.90;99.90
20208;DHT22;10263;48.716;8.760;2023-04-01T08:32:50;6.90;99.90
20208;DHT22;10263;48.716;8.760;2023-04-01T08:35:26;6.80;99.90
20208;DHT22;10263;48.716;8.760;2023-04-01T08:37:57;6.90;99.90
20208;DHT22;10263;48.716;8.760;2023-04-01T08:40:50;6.80;99.90
20208;DHT22;10263;48.716;8.760;2023-04-01T08:43:30;7.00;99.90
20208;DHT22;10263;48.716;8.760;2023-04-01T08:46:18;7.10;99.90
20208;DHT22;10263;48.716;8.760;2023-04-01T08:49:00;7.10;99.90
20208;DHT22;10263;48.716;8.760;2023-04-01T08:54:46;7.10;99.90
20208;DHT22;10263;48.716;8.760;2023-04-01T08:57:36;7.30;99.90
20208;DHT22;10263;48.716;8.760;2023-04-01T09:00:31;7.40;99.90
20208;DHT22;10263;48.716;8.760;2023-04-01T09:03:34;7.50;99.90
20208;DHT22;10263;48.716;8.760;2023-04-01T09:06:26;7.60;99.90
20208;DHT22;10263;48.716;8.760;2023-04-01T09:09:22;7.70;99.90
20208;DHT22;10263;48.716;8.760;2023-04-01T09:12:18;7.80;99.90
20208;DHT22;10263;48.716;8.760;2023-04-01T09:15:12;7.80;99.90
20208;DHT22;10263;48.716;8.760;2023-04-01T09:17:58;7.80;99.90
20208;DHT22;10263;48.716;8.760;2023-04-01T09:20:47;7.80;99.90
20208;DHT22;10263;48.716;8.760;2023-04-01T09:23:29;7.80;99.90
20208;DHT22;10263;48.716;8.760;2023-04-01T09:26:12;7.80;99.90
20208;DHT22;10263;48.716;8.760;2023-04-01T09:28:49;7.80;99.90
20208;DHT22;10263;48.716;8.760;2023-04-01T09:34:53;7.80;99.90
20208;DHT22;10263;48.716;8.760;2023-04-01T09:37:34;8.00;99.90
20208;DHT22;10263;48.716;8.760;2023-04-01T09:40:16;7.50;99.90
20208;DHT22;10263;48.716;8.760;2023-04-01T09:43:06;7.70;99.90
20208;DHT22;10263;48.716;8.760;2023-04-01T09:45:46;7.70;99.90
20208;DHT22;10263;48.716;8.760;2023-04-01T09:48:25;7.80;99.90
20208;DHT22;10263;48.716;8.760;2023-04-01T09:51:02;7.80;99.90
20208;DHT22;10263;48.716;8.760;2023-04-01T09:53:47;7.80;99.90
20208;DHT22;10263;48.716;8.760;2023-04-01T09:56:52;7.80;99.90
20208;DHT22;10263;48.716;8.760;2023-04-01T10:03:12;7.80;99.90
20208;DHT22;10263;48.716;8.760;2023-04-01T10:09:15;7.80;99.90
20208;DHT22;10263;48.716;8.760;2023-04-01T10:12:15;8.00;99.90
20208;DHT22;10263;48.716;8.760;2023-04-01T10:15:21;8.40;99.90
20208;DHT22;10263;48.716;8.760;2023-04-01T10:18:13;8.60;99.90
20208;DHT22;10263;48.716;8.760;2023-04-01T10:21:05;8.70;99.90
20208;DHT22;10263;48.716;8.760;2023-04-01T10:24:05;8.80;99.90
20208;DHT22;10263;48.716;8.760;2023-04-01T10:27:12;9.00;99.90
20208;DHT22;10263;48.716;8.760;2023-04-01T10:34:01;9.10;99.90
20208;DHT22;10263;48.716;8.760;2023-04-01T10:36:51;9.00;99.90
20208;DHT22;10263;48.716;8.760;2023-04-01T10:40:00;8.80;99.90
20208;DHT22;10263;48.716;8.760;2023-04-01T10:46:29;8.80;99.90
20208;DHT22;10263;48.716;8.760;2023-04-01T10:49:26;8.70;99.90
20208;DHT22;10263;48.716;8.760;2023-04-01T11:02:56;9.40;99.90
20208;DHT22;10263;48.716;8.760;2023-04-01T11:06:05;9.70;99.90
20208;DHT22;10263;48.716;8.760;2023-04-01T11:09:12;9.90;99.90
20208;DHT22;10263;48.716;8.760;2023-04-01T11:12:36;9.90;99.90
20208;DHT22;10263;48.716;8.760;2023-04-01T11:15:32;9.90;99.90
20208;DHT22;10263;48.716;8.760;2023-04-01T11:18:31;9.90;99.90
20208;DHT22;10263;48.716;8.760;2023-04-01T11:27:30;10.20;99.90
20208;DHT22;10263;48.716;8.760;2023-04-01T11:30:27;10.20;99.90
20208;DHT22;10263;48.716;8.760;2023-04-01T11:33:02;10.40;99.90
20208;DHT22;10263;48.716;8.760;2023-04-01T11:35:42;10.50;99.90
20208;DHT22;10263;48.716;8.760;2023-04-01T11:38:24;10.60;99.90
20208;DHT22;10263;48.716;8.760;2023-04-01T11:40:59;10.60;99.90
20208;DHT22;10263;48.716;8.760;2023-04-01T11:44:01;10.40;99.90
20208;DHT22;10263;48.716;8.760;2023-04-01T11:47:10;10.50;99.90
20208;DHT22;10263;48.716;8.760;2023-04-01T11:49:56;10.60;99.90
20208;DHT22;10263;48.716;8.760;2023-04-01T11:53:00;10.60;99.90
20208;DHT22;10263;48.716;8.760;2023-04-01T11:55:35;10.60;99.90
20208;DHT22;10263;48.716;8.760;2023-04-01T11:58:28;10.70;99.90
20208;DHT22;10263;48.716;8.760;2023-04-01T12:01:16;10.60;99.90
20208;DHT22;10263;48.716;8.760;2023-04-01T12:04:00;10.30;99.90
20208;DHT22;10263;48.716;8.760;2023-04-01T12:06:37;10.20;99.90
20208;DHT22;10263;48.716;8.760;2023-04-01T12:09:12;9.90;99.90
20208;DHT22;10263;48.716;8.760;2023-04-01T12:11:50;9.80;99.90
20208;DHT22;10263;48.716;8.760;2023-04-01T12:14:22;9.70;99.90
20208;DHT22;10263;48.716;8.760;2023-04-01T12:17:03;9.60;99.90
20208;DHT22;10263;48.716;8.760;2023-04-01T12:19:41;9.60;99.90
20208;DHT22;10263;48.716;8.760;2023-04-01T12:22:23;9.90;99.90
20208;DHT22;10263;48.716;8.760;2023-04-01T12:24:57;10.00;99.90
20208;DHT22;10263;48.716;8.760;2023-04-01T12:27:43;10.30;99.90
20208;DHT22;10263;48.716;8.760;2023-04-01T12:30:32;10.60;99.90
20208;DHT22;10263;48.716;8.760;2023-04-01T12:33:28;10.70;99.90
20208;DHT22;10263;48.716;8.760;2023-04-01T12:36:12;10.70;99.90
20208;DHT22;10263;48.716;8.760;2023-04-01T12:38:51;10.60;99.90
20208;DHT22;10263;48.716;8.760;2023-04-01T12:41:29;10.30;99.90
20208;DHT22;10263;48.716;8.760;2023-04-01T12:44:26;10.30;99.90
20208;DHT22;10263;48.716;8.760;2023-04-01T12:50:39;10.10;99.90
20208;DHT22;10263;48.716;8.760;2023-04-01T12:53:27;9.80;99.90
20208;DHT22;10263;48.716;8.760;2023-04-01T12:56:03;9.90;99.90
20208;DHT22;10263;48.716;8.760;2023-04-01T13:02:07;10.10;99.90
20208;DHT22;10263;48.716;8.760;2023-04-01T13:07:56;9.90;99.90
20208;DHT22;10263;48.716;8.760;2023-04-01T13:10:42;9.90;99.90
20208;DHT22;10263;48.716;8.760;2023-04-01T13:13:48;9.90;99.90
20208;DHT22;10263;48.716;8.760;2023-04-01T13:16:21;9.90;99.90
20208;DHT22;10263;48.716;8.760;2023-04-01T13:18:57;9.90;99.90
20208;DHT22;10263;48.716;8.760;2023-04-01T13:21:33;10.00;99.90
20208;DHT22;10263;48.716;8.760;2023-04-01T13:24:07;10.10;99.90
20208;DHT22;10263;48.716;8.760;2023-04-01T13:26:38;10.20;99.90
20208;DHT22;10263;48.716;8.760;2023-04-01T13:29:13;10.20;99.90
20208;DHT22;10263;48.716;8.760;2023-04-01T13:31:50;10.20;99.90
20208;DHT22;10263;48.716;8.760;2023-04-01T13:34:37;10.10;99.90
20208;DHT22;10263;48.716;8.760;2023-04-01T13:37:20;10.10;99.90
20208;DHT22;10263;48.716;8.760;2023-04-01T13:40:16;9.80;99.90
20208;DHT22;10263;48.716;8.760;2023-04-01T13:42:51;9.90;99.90
20208;DHT22;10263;48.716;8.760;2023-04-01T13:45:23;9.80;99.90
20208;DHT22;10263;48.716;8.760;2023-04-01T13:48:04;9.90;99.90
20208;DHT22;10263;48.716;8.760;2023-04-01T13:50:56;9.80;99.90
20208;DHT22;10263;48.716;8.760;2023-04-01T13:53:51;9.80;99.90
20208;DHT22;10263;48.716;8.760;2023-04-01T13:56:33;9.80;99.90
20208;DHT22;10263;48.716;8.760;2023-04-01T13:59:31;9.70;99.90
20208;DHT22;10263;48.716;8.760;2023-04-01T14:02:24;9.50;99.90
20208;DHT22;10263;48.716;8.760;2023-04-01T14:05:09;9.60;99.90
20208;DHT22;10263;48.716;8.760;2023-04-01T14:07:50;9.70;99.90
20208;DHT22;10263;48.716;8.760;2023-04-01T14:10:30;9.60;99.90
20208;DHT22;10263;48.716;8.760;2023-04-01T14:13:01;9.50;99.90
20208;DHT22;10263;48.716;8.760;2023-04-01T14:15:52;9.50;99.90
20208;DHT22;10263;48.716;8.760;2023-04-01T14:18:37;9.50;99.90
20208;DHT22;10263;48.716;8.760;2023-04-01T14:21:24;9.60;99.90
20208;DHT22;10263;48.716;8.760;2023-04-01T14:24:04;9.70;99.90
20208;DHT22;10263;48.716;8.760;2023-04-01T14:26:58;9.80;99.90
20208;DHT22;10263;48.716;8.760;2023-04-01T14:29:29;9.80;99.90
20208;DHT22;10263;48.716;8.760;2023-04-01T14:32:06;9.80;99.90
20208;DHT22;10263;48.716;8.760;2023-04-01T14:34:47;9.70;99.90
20208;DHT22;10263;48.716;8.760;2023-04-01T14:37:25;9.60;99.90
20208;DHT22;10263;48.716;8.760;2023-04-01T14:40:22;9.40;99.90
20208;DHT22;10263;48.716;8.760;2023-04-01T14:43:10;9.50;99.90
20208;DHT22;10263;48.716;8.760;2023-04-01T14:45:46;9.40;99.90
20208;DHT22;10263;48.716;8.760;2023-04-01T14:48:26;9.30;99.90
20208;DHT22;10263;48.716;8.760;2023-04-01T14:51:03;9.30;99.90
20208;DHT22;10263;48.716;8.760;2023-04-01T14:53:33;9.20;99.90
20208;DHT22;10263;48.716;8.760;2023-04-01T14:58:42;9.30;99.90
20208;DHT22;10263;48.716;8.760;2023-04-01T15:01:18;9.40;99.90
20208;DHT22;10263;48.716;8.760;2023-04-01T15:03:56;9.50;99.90
20208;DHT22;10263;48.716;8.760;2023-04-01T15:06:50;9.60;99.90
20208;DHT22;10263;48.716;8.760;2023-04-01T15:09:28;9.70;99.90
20208;DHT22;10263;48.716;8.760;2023-04-01T15:12:05;9.80;99.90
20208;DHT22;10263;48.716;8.760;2023-04-01T15:14:53;9.70;99.90
20208;DHT22;10263;48.716;8.760;2023-04-01T15:17:39;9.70;99.90
20208;DHT22;10263;48.716;8.760;2023-04-01T15:20:30;9.70;99.90
20208;DHT22;10263;48.716;8.760;2023-04-01T15:23:13;9.80;99.90
20208;DHT22;10263;48.716;8.760;2023-04-01T15:25:51;9.80;99.90
20208;DHT22;10263;48.716;8.760;2023-04-01T15:28:28;10.00;99.90
20208;DHT22;10263;48.716;8.760;2023-04-01T15:31:04;9.90;99.90
20208;DHT22;10263;48.716;8.760;2023-04-01T15:33:47;9.90;99.90
20208;DHT22;10263;48.716;8.760;2023-04-01T15:36:25;9.60;99.90
20208;DHT22;10263;48.716;8.760;2023-04-01T15:38:58;9.70;99.90
20208;DHT22;10263;48.716;8.760;2023-04-01T15:41:36;9.70;99.90
20208;DHT22;10263;48.716;8.760;2023-04-01T15:44:26;10.80;99.90
20208;DHT22;10263;48.716;8.760;2023-04-01T15:47:07;9.40;99.90
20208;DHT22;10263;48.716;8.760;2023-04-01T15:49:53;9.40;99.90
20208;DHT22;10263;48.716;8.760;2023-04-01T15:52:23;9.40;99.90
20208;DHT22;10263;48.716;8.760;2023-04-01T15:57:56;9.20;99.90
20208;DHT22;10263;48.716;8.760;2023-04-01T16:00:32;9.10;99.90
20208;DHT22;10263;48.716;8.760;2023-04-01T16:03:22;9.10;99.90
20208;DHT22;10263;48.716;8.760;2023-04-01T16:06:01;9.10;99.90
20208;DHT22;10263;48.716;8.760;2023-04-01T16:08:47;9.20;99.90
20208;DHT22;10263;48.716;8.760;2023-04-01T16:11:24;9.20;99.90
20208;DHT22;10263;48.716;8.760;2023-04-01T16:14:04;9.30;99.90
20208;DHT22;10263;48.716;8.760;2023-04-01T16:16:44;9.20;99.90
20208;DHT22;10263;48.716;8.760;2023-04-01T16:19:28;9.30;99.90
20208;DHT22;10263;48.716;8.760;2023-04-01T16:22:00;9.30;99.90
20208;DHT22;10263;48.716;8.760;2023-04-01T16:24:33;9.20;99.90
20208;DHT22;10263;48.716;8.760;2023-04-01T16:27:06;9.00;99.90
20208;DHT22;10263;48.716;8.760;2023-04-01T16:29:40;9.10;99.90
20208;DHT22;10263;48.716;8.760;2023-04-01T16:32:34;9.00;99.90
20208;DHT22;10263;48.716;8.760;2023-04-01T16:35:24;9.00;99.90
20208;DHT22;10263;48.716;8.760;2023-04-01T16:37:56;8.90;99.90
20208;DHT22;10263;48.716;8.760;2023-04-01T16:40:37;9.00;99.90
20208;DHT22;10263;48.716;8.760;2023-04-01T16:43:16;9.00;99.90
20208;DHT22;10263;48.716;8.760;2023-04-01T16:45:54;8.90;99.90
20208;DHT22;10263;48.716;8.760;2023-04-01T16:48:29;9.00;99.90
20208;DHT22;10263;48.716;8.760;2023-04-01T16:51:03;9.00;99.90
20208;DHT22;10263;48.716;8.760;2023-04-01T16:53:40;8.90;99.90
20208;DHT22;10263;48.716;8.760;2023-04-01T16:56:11;8.80;99.90
20208;DHT22;10263;48.716;8.760;2023-04-01T16:58:42;8.80;99.90
20208;DHT22;10263;48.716;8.760;2023-04-01T17:01:13;8.80;99.90
20208;DHT22;10263;48.716;8.760;2023-04-01T17:03:44;8.80;99.90
20208;DHT22;10263;48.716;8.760;2023-04-01T17:06:24;8.80;99.90
20208;DHT22;10263;48.716;8.760;2023-04-01T17:09:04;8.80;99.90
20208;DHT22;10263;48.716;8.760;2023-04-01T17:11:37;8.70;99.90
20208;DHT22;10263;48.716;8.760;2023-04-01T17:14:14;8.70;99.90
20208;DHT22;10263;48.716;8.760;2023-04-01T17:17:01;8.70;99.90
20208;DHT22;10263;48.716;8.760;2023-04-01T17:19:47;8.70;99.90
20208;DHT22;10263;48.716;8.760;2023-04-01T17:22:25;8.70;99.90
20208;DHT22;10263;48.716;8.760;2023-04-01T17:25:05;8.70;99.90
20208;DHT22;10263;48.716;8.760;2023-04-01T17:27:43;8.70;99.90
20208;DHT22;10263;48.716;8.760;2023-04-01T17:30:24;8.60;99.90
20208;DHT22;10263;48.716;8.760;2023-04-01T17:33:14;8.60;99.90
20208;DHT22;10263;48.716;8.760;2023-04-01T17:35:53;8.60;99.90
20208;DHT22;10263;48.716;8.760;2023-04-01T17:38:34;8.50;99.90
20208;DHT22;10263;48.716;8.760;2023-04-01T17:41:08;8.50;99.90
20208;DHT22;10263;48.716;8.760;2023-04-01T17:43:46;8.40;99.90
20208;DHT22;10263;48.716;8.760;2023-04-01T17:46:27;8.40;99.90
20208;DHT22;10263;48.716;8.760;2023-04-01T17:49:02;8.30;99.90
20208;DHT22;10263;48.716;8.760;2023-04-01T17:51:38;8.40;99.90
20208;DHT22;10263;48.716;8.760;2023-04-01T17:54:17;8.10;99.90
20208;DHT22;10263;48.716;8.760;2023-04-01T17:56:55;8.00;99.90
20208;DHT22;10263;48.716;8.760;2023-04-01T17:59:35;7.90;99.90
20208;DHT22;10263;48.716;8.760;2023-04-01T18:02:15;7.80;99.90
20208;DHT22;10263;48.716;8.760;2023-04-01T18:05:10;7.70;99.90
20208;DHT22;10263;48.716;8.760;2023-04-01T18:07:55;7.60;99.90
20208;DHT22;10263;48.716;8.760;2023-04-01T18:10:28;7.50;99.90
20208;DHT22;10263;48.716;8.760;2023-04-01T18:13:16;5.00;99.90
20208;DHT22;10263;48.716;8.760;2023-04-01T18:15:50;7.40;99.90
20208;DHT22;10263;48.716;8.760;2023-04-01T18:18:36;7.40;99.90
20208;DHT22;10263;48.716;8.760;2023-04-01T18:21:08;6.10;99.90
20208;DHT22;10263;48.716;8.760;2023-04-01T18:23:44;7.20;99.90
20208;DHT22;10263;48.716;8.760;2023-04-01T18:26:20;7.20;99.90
20208;DHT22;10263;48.716;8.760;2023-04-01T18:28:52;7.10;99.90
20208;DHT22;10263;48.716;8.760;2023-04-01T18:31:21;7.10;99.90
20208;DHT22;10263;48.716;8.760;2023-04-01T18:33:58;7.00;99.90
20208;DHT22;10263;48.716;8.760;2023-04-01T18:36:38;7.00;99.90
20208;DHT22;10263;48.716;8.760;2023-04-01T18:39:11;7.00;99.90
20208;DHT22;10263;48.716;8.760;2023-04-01T18:41:47;6.90;99.90
20208;DHT22;10263;48.716;8.760;2023-04-01T18:44:38;7.00;99.90
20208;DHT22;10263;48.716;8.760;2023-04-01T18:47:22;6.80;99.90
20208;DHT22;10263;48.716;8.760;2023-04-01T18:49:58;6.80;99.90
20208;DHT22;10263;48.716;8.760;2023-04-01T18:52:33;6.80;99.90
20208;DHT22;10263;48.716;8.760;2023-04-01T18:55:35;6.80;99.90
20208;DHT22;10263;48.716;8.760;2023-04-01T18:58:14;6.80;99.90
20208;DHT22;10263;48.716;8.760;2023-04-01T19:00:49;6.80;99.90
20208;DHT22;10263;48.716;8.760;2023-04-01T19:03:22;6.80;99.90
20208;DHT22;10263;48.716;8.760;2023-04-01T19:05:53;6.80;99.90
20208;DHT22;10263;48.716;8.760;2023-04-01T19:08:28;6.80;99.90
20208;DHT22;10263;48.716;8.760;2023-04-01T19:11:04;6.90;99.90
20208;DHT22;10263;48.716;8.760;2023-04-01T19:13:42;6.90;99.90
20208;DHT22;10263;48.716;8.760;2023-04-01T19:16:19;6.80;99.90
20208;DHT22;10263;48.716;8.760;2023-04-01T19:18:59;6.80;99.90
20208;DHT22;10263;48.716;8.760;2023-04-01T19:21:33;6.80;99.90
20208;DHT22;10263;48.716;8.760;2023-04-01T19:24:21;6.70;99.90
20208;DHT22;10263;48.716;8.760;2023-04-01T19:26:58;6.80;99.90
20208;DHT22;10263;48.716;8.760;2023-04-01T19:29:41;6.70;99.90
20208;DHT22;10263;48.716;8.760;2023-04-01T19:32:16;6.60;99.90
20208;DHT22;10263;48.716;8.760;2023-04-01T19:34:55;5.10;99.90
20208;DHT22;10263;48.716;8.760;2023-04-01T19:37:33;6.60;99.90
20208;DHT22;10263;48.716;8.760;2023-04-01T19:40:23;6.60;99.90
20208;DHT22;10263;48.716;8.760;2023-04-01T19:42:59;6.60;99.90
20208;DHT22;10263;48.716;8.760;2023-04-01T19:45:37;6.50;99.90
20208;DHT22;10263;48.716;8.760;2023-04-01T19:48:12;6.60;99.90
20208;DHT22;10263;48.716;8.760;2023-04-01T19:50:42;6.50;99.90
20208;DHT22;10263;48.716;8.760;2023-04-01T19:53:19;6.50;99.90
20208;DHT22;10263;48.716;8.760;2023-04-01T19:55:52;6.50;99.90
20208;DHT22;10263;48.716;8.760;2023-04-01T19:58:26;6.40;99.90
20208;DHT22;10263;48.716;8.760;2023-04-01T20:00:58;6.50;99.90
20208;DHT22;10263;48.716;8.760;2023-04-01T20:03:33;6.50;99.90
20208;DHT22;10263;48.716;8.760;2023-04-01T20:06:07;6.50;99.90
20208;DHT22;10263;48.716;8.760;2023-04-01T20:08:43;6.50;99.90
20208;DHT22;10263;48.716;8.760;2023-04-01T20:11:21;6.40;99.90
20208;DHT22;10263;48.716;8.760;2023-04-01T20:14:01;6.50;99.90